Time;durP1;ratioP1;P1;durP2;ratioP2;P2;SDS_P1;SDS_P2;PMS_P1;PMS_P2;Temp;Humidity;BMP_temperature;BMP_pressure;BME280_temperature;BME280_humidity;BME280_pressure;Samples;Min_cycle;Max_cycle;Signal;HPM_P1;HPM_P2
2023/02/25 08:00:34;;;;;;;7.57;5.07;;;;;;;;;;5140127;27;20273;-80
2023/02/25 08:15:45;;;;;;;7.47;4.57;;;1.40;99.90;;;;;;5135941;27;20293;-80
2023/02/25 08:36:40;;;;;;;13.93;7.17;;;;;;;;;;5134170;27;20790;-82
2023/02/25 09:17:39;;;;;;;7.57;5.37;;;1.40;99.90;;;;;;5151228;27;20288;-82
2023/02/25 09:22:27;;;;;;;6.77;5.00;;;1.30;99.90;;;;;;5120887;27;20264;-84
2023/02/25 09:49:55;;;;;;;15.47;9.30;;;1.60;99.90;;;;;;5142611;27;20267;-84
2023/02/25 09:54:08;;;;;;;8.20;5.97;;;1.40;99.90;;;;;;5080367;28;20597;-83
2023/02/25 09:58:30;;;;;;;8.47;5.60;;;1.50;99.90;;;;;;5120589;27;20592;-83
2023/02/25 10:03:17;;;;;;;19.30;12.20;;;;;;;;;;5155738;27;20287;-83
2023/02/25 10:07:00;;;;;;;15.13;6.13;;;1.70;99.90;;;;;;5118634;27;20367;-82
2023/02/25 10:11:08;;;;;;;16.50;9.03;;;1.70;99.90;;;;;;5140636;27;20271;-83
2023/02/25 10:15:36;;;;;;;16.20;9.93;;;1.70;99.90;;;;;;5119756;27;20368;-83
2023/02/25 10:19:10;;;;;;;28.73;17.63;;;1.70;99.90;;;;;;5139975;27;20267;-83
2023/02/25 10:23:34;;;;;;;23.70;14.30;;;1.70;99.90;;;;;;5139308;27;20271;-83
2023/02/25 10:28:19;;;;;;;12.90;7.80;;;1.70;99.90;;;;;;5131031;27;20349;-84
2023/02/25 10:32:09;;;;;;;11.43;8.47;;;1.70;99.90;;;;;;5138959;27;20611;-83
2023/02/25 10:36:18;;;;;;;22.57;11.57;;;1.70;99.90;;;;;;5098061;27;20647;-82
2023/02/25 10:39:58;;;;;;;10.53;6.27;;;1.70;99.90;;;;;;5119471;27;20338;-84
2023/02/25 10:43:50;;;;;;;22.33;15.40;;;1.70;99.90;;;;;;5119300;27;20351;-83
2023/02/25 10:48:06;;;;;;;7.80;5.13;;;1.70;99.90;;;;;;5117703;27;20269;-83
2023/02/25 10:52:14;;;;;;;13.20;6.03;;;1.80;99.90;;;;;;5140120;27;20271;-82
2023/02/25 10:55:53;;;;;;;45.60;28.70;;;1.80;99.90;;;;;;5139319;27;20309;-83
2023/02/25 11:00:01;;;;;;;31.70;20.57;;;1.70;99.90;;;;;;5143622;27;20270;-83
2023/02/25 11:03:57;;;;;;;17.17;11.60;;;1.80;99.90;;;;;;5137522;27;20278;-83
2023/02/25 11:07:55;;;;;;;21.30;15.87;;;1.80;99.90;;;;;;5090261;28;20552;-82
2023/02/25 11:11:59;;;;;;;25.83;16.10;;;1.80;99.90;;;;;;5097735;28;20335;-82
2023/02/25 11:15:51;;;;;;;12.77;9.00;;;1.80;99.90;;;;;;5139382;27;20284;-82
2023/02/25 11:19:57;;;;;;;11.43;7.00;;;1.90;99.90;;;;;;5137737;27;20273;-82
2023/02/25 11:23:53;;;;;;;16.40;10.77;;;2.00;99.90;;;;;;5136820;27;20748;-82
2023/02/25 11:27:57;;;;;;;13.87;8.30;;;2.00;99.90;;;;;;5137006;27;20267;-82
2023/02/25 11:32:07;;;;;;;13.97;9.87;;;1.90;99.90;;;;;;5138136;27;20264;-83
2023/02/25 11:36:02;;;;;;;16.27;10.60;;;1.90;99.90;;;;;;5138050;27;20283;-82
2023/02/25 11:40:01;;;;;;;15.63;9.67;;;2.00;99.90;;;;;;5137125;27;20358;-82
2023/02/25 11:44:09;;;;;;;9.40;6.17;;;2.00;99.90;;;;;;5119877;27;20634;-82
2023/02/25 11:47:55;;;;;;;5.17;4.67;;;1.80;99.90;;;;;;5139751;27;20281;-81
2023/02/25 11:50:44;;;;;;;10.93;7.00;;;1.80;99.90;;;;;;5121440;28;20193;-81
2023/02/25 11:55:01;;;;;;;9.53;6.20;;;1.90;99.90;;;;;;5138627;27;20631;-80
2023/02/25 11:57:38;;;;;;;11.83;9.83;;;1.90;99.90;;;;;;5132717;28;20198;-80
2023/02/25 12:02:05;;;;;;;43.13;20.43;;;2.00;99.90;;;;;;5177916;27;20356;-81
2023/02/25 12:05:49;;;;;;;15.97;9.13;;;2.00;99.90;;;;;;5136188;27;20277;-81
2023/02/25 12:09:24;;;;;;;18.07;9.43;;;2.00;99.90;;;;;;5137258;27;20274;-81
2023/02/25 12:13:41;;;;;;;9.57;4.90;;;2.10;99.90;;;;;;5180153;27;20284;-81
2023/02/25 12:16:45;;;;;;;7.17;4.07;;;2.10;99.90;;;;;;5137533;28;20242;-81
2023/02/25 12:21:02;;;;;;;6.77;4.17;;;2.10;99.90;;;;;;5141871;27;20287;-82
2023/02/25 12:24:00;;;;;;;7.17;3.90;;;2.10;99.90;;;;;;5123922;28;20186;-82
2023/02/25 12:26:45;;;;;;;8.87;4.63;;;2.10;99.90;;;;;;5127367;28;20258;-83
2023/02/25 12:31:40;;;;;;;9.93;3.87;;;2.10;99.90;;;;;;5138697;27;20271;-82
2023/02/25 12:34:24;;;;;;;8.47;5.43;;;2.20;99.90;;;;;;5087426;28;20265;-83
2023/02/25 12:37:22;;;;;;;5.70;3.60;;;2.20;99.90;;;;;;5127715;28;20206;-82
2023/02/25 12:40:07;;;;;;;20.13;10.40;;;2.20;99.90;;;;;;5133609;27;20266;-83
2023/02/25 12:42:32;;;;;;;11.67;4.90;;;2.30;99.90;;;;;;5133937;28;20262;-82
2023/02/25 12:45:39;;;;;;;4.27;3.43;;;2.30;99.90;;;;;;5134243;28;20176;-82
2023/02/25 12:48:29;;;;;;;8.17;3.77;;;2.30;99.90;;;;;;5134632;28;20183;-82
2023/02/25 12:51:14;;;;;;;5.50;3.77;;;2.40;99.90;;;;;;5134539;28;20658;-82
2023/02/25 12:54:05;;;;;;;9.47;4.07;;;2.40;99.90;;;;;;5134687;28;20172;-83
2023/02/25 12:56:58;;;;;;;10.13;3.90;;;2.30;99.90;;;;;;5135370;28;20190;-82
2023/02/25 12:59:27;;;;;;;4.53;3.47;;;2.30;99.90;;;;;;5135502;28;20164;-82
2023/02/25 13:02:23;;;;;;;5.97;4.30;;;2.30;99.90;;;;;;5135778;28;20180;-83
2023/02/25 13:05:01;;;;;;;7.00;4.23;;;2.30;99.90;;;;;;5137666;28;20259;-82
2023/02/25 13:07:48;;;;;;;6.10;4.57;;;2.40;99.90;;;;;;5137747;28;20195;-82
2023/02/25 13:10:28;;;;;;;8.73;5.23;;;2.50;99.90;;;;;;5138655;28;20677;-82
2023/02/25 13:13:23;;;;;;;5.17;3.97;;;2.50;99.90;;;;;;5137609;27;20151;-82
2023/02/25 13:16:14;;;;;;;11.37;5.50;;;2.60;99.90;;;;;;5135390;28;20195;-82
2023/02/25 13:19:17;;;;;;;20.63;9.60;;;2.70;99.90;;;;;;5137145;27;20609;-81
2023/02/25 13:22:14;;;;;;;6.87;4.10;;;2.70;99.90;;;;;;5136244;28;20633;-83
2023/02/25 13:25:19;;;;;;;7.33;4.00;;;2.90;99.90;;;;;;5129103;28;20190;-80
2023/02/25 13:27:59;;;;;;;9.97;3.97;;;3.00;99.90;;;;;;5138051;27;20186;-81
2023/02/25 13:30:30;;;;;;;5.80;3.73;;;2.90;99.90;;;;;;5135822;27;20291;-80
2023/02/25 13:33:22;;;;;;;3.70;3.00;;;2.80;99.90;;;;;;5137237;27;20155;-80
2023/02/25 13:36:06;;;;;;;5.37;4.00;;;2.70;99.90;;;;;;5135991;28;20235;-80
2023/02/25 13:38:54;;;;;;;8.27;5.00;;;2.70;99.90;;;;;;5138374;27;20239;-80
2023/02/25 13:41:41;;;;;;;7.60;3.80;;;2.70;99.90;;;;;;5128360;28;20200;-81
2023/02/25 13:44:44;;;;;;;11.80;4.77;;;2.60;99.90;;;;;;5124611;28;20172;-81
2023/02/25 13:47:55;;;;;;;3.93;3.53;;;2.60;99.90;;;;;;5124985;28;20200;-81
2023/02/25 13:50:58;;;;;;;5.63;3.10;;;2.70;99.90;;;;;;5123968;28;20534;-81
2023/02/25 13:53:54;;;;;;;3.77;3.10;;;2.70;99.90;;;;;;5124685;28;20167;-81
2023/02/25 13:56:39;;;;;;;6.27;4.07;;;2.70;99.90;;;;;;5124092;28;20199;-81
2023/02/25 13:59:10;;;;;;;8.37;5.43;;;2.80;99.90;;;;;;5126379;28;20167;-81
2023/02/25 14:02:13;;;;;;;7.33;3.63;;;3.00;99.90;;;;;;5126052;28;20176;-80
2023/02/25 14:05:16;;;;;;;5.90;3.23;;;3.00;99.90;;;;;;5126236;28;20184;-81
2023/02/25 14:07:59;;;;;;;13.43;8.80;;;3.10;99.90;;;;;;5125794;28;20199;-81
2023/02/25 14:10:36;;;;;;;10.90;7.07;;;3.50;99.90;;;;;;5129373;28;20168;-79
2023/02/25 14:13:10;;;;;;;4.83;4.13;;;3.50;99.90;;;;;;5134975;28;20170;-79
2023/02/25 14:15:49;;;;;;;7.20;4.03;;;3.40;99.90;;;;;;5117661;28;20190;-80
2023/02/25 14:18:37;;;;;;;6.93;3.53;;;3.40;99.90;;;;;;5117131;28;20160;-79
2023/02/25 14:21:25;;;;;;;3.23;2.40;;;3.40;99.90;;;;;;5118354;28;20160;-79
2023/02/25 14:24:16;;;;;;;4.30;2.80;;;3.40;99.90;;;;;;5117240;28;20601;-79
2023/02/25 14:27:16;;;;;;;5.50;2.80;;;3.30;99.90;;;;;;5121266;28;20223;-80
2023/02/25 14:30:03;;;;;;;6.90;4.47;;;3.20;99.90;;;;;;5123771;28;20214;-80
2023/02/25 14:32:46;;;;;;;334.30;75.07;;;3.30;99.90;;;;;;5123269;28;20626;-80
2023/02/25 14:35:30;;;;;;;79.23;19.57;;;3.30;99.90;;;;;;5123191;27;20153;-80
2023/02/25 14:38:10;;;;;;;15.07;8.30;;;3.00;99.90;;;;;;5122567;28;20199;-80
2023/02/25 14:41:28;;;;;;;7.10;4.33;;;2.80;99.90;;;;;;5121114;28;20658;-79
2023/02/25 14:43:59;;;;;;;10.27;4.60;;;2.60;99.90;;;;;;5108764;28;20669;-79
